DLH2471 EGLL-EDDF
Flight info
| Callsign | DLH2471 |
|---|---|
| Flight time | N/A |
| Altitude | 36000 |
| Route | BPK6J BPK Q295 MATCH DCT REDFA DCT TACHA DCT NOLRU DCT DIXAT DIXAT1A |
| Aircraft | A359/H-SDE2E3GHIJ3J4J5LM1ORWXY/LB1D1 |
Departure
| Time | 2026-05-07 18:33 |
|---|---|
| Airport | London Heathrow Airport (EGLL) |
Arrival
| Time | N/A |
|---|---|
| Airport | Frankfurt Main Airport (EDDF) |
| Time | Latitude | Longitude | Altitude | Speed | Heading |
|---|---|---|---|---|---|
| 2026-05-07 18:07 | 51.47342 | -0.44182 | 91 ft | 0 kts | 270° |
| 2026-05-07 18:15 | 51.47342 | -0.44171 | 93 ft | 2 kts | 267° |
| 2026-05-07 18:15 | 51.47343 | -0.44144 | 91 ft | 2 kts | 264° |
| 2026-05-07 18:15 | 51.47345 | -0.44118 | 92 ft | 2 kts | 256° |
| 2026-05-07 18:16 | 51.47351 | -0.44093 | 92 ft | 2 kts | 241° |
| 2026-05-07 18:16 | 51.47361 | -0.44072 | 92 ft | 2 kts | 213° |
| 2026-05-07 18:16 | 51.47376 | -0.44062 | 94 ft | 2 kts | 187° |
| 2026-05-07 18:16 | 51.47385 | -0.44061 | 95 ft | 1 kts | 181° |
| 2026-05-07 18:23 | 51.47383 | -0.44061 | 91 ft | 2 kts | 181° |
| 2026-05-07 18:23 | 51.47341 | -0.44062 | 95 ft | 10 kts | 181° |
| 2026-05-07 18:23 | 51.47257 | -0.44063 | 93 ft | 14 kts | 179° |
| 2026-05-07 18:24 | 51.47152 | -0.44061 | 95 ft | 16 kts | 180° |
| 2026-05-07 18:24 | 51.47031 | -0.44060 | 95 ft | 18 kts | 179° |
| 2026-05-07 18:24 | 51.46913 | -0.44058 | 95 ft | 14 kts | 179° |
| 2026-05-07 18:24 | 51.46806 | -0.44056 | 95 ft | 17 kts | 179° |
| 2026-05-07 18:25 | 51.46689 | -0.44072 | 90 ft | 15 kts | 209° |
| 2026-05-07 18:25 | 51.46666 | -0.44170 | 89 ft | 9 kts | 268° |
| 2026-05-07 18:25 | 51.46667 | -0.44298 | 90 ft | 14 kts | 270° |
| 2026-05-07 18:25 | 51.46667 | -0.44475 | 93 ft | 17 kts | 268° |
| 2026-05-07 18:26 | 51.46665 | -0.44672 | 96 ft | 18 kts | 269° |
| 2026-05-07 18:26 | 51.46665 | -0.44881 | 98 ft | 20 kts | 270° |
| 2026-05-07 18:26 | 51.46664 | -0.45114 | 98 ft | 22 kts | 269° |
| 2026-05-07 18:26 | 51.46664 | -0.45385 | 91 ft | 27 kts | 269° |
| 2026-05-07 18:27 | 51.46663 | -0.45658 | 88 ft | 23 kts | 270° |
| 2026-05-07 18:27 | 51.46661 | -0.45938 | 87 ft | 26 kts | 269° |
| 2026-05-07 18:27 | 51.46659 | -0.46227 | 96 ft | 26 kts | 271° |
| 2026-05-07 18:27 | 51.46660 | -0.46523 | 95 ft | 19 kts | 269° |
| 2026-05-07 18:28 | 51.46660 | -0.46703 | 97 ft | 17 kts | 270° |
| 2026-05-07 18:28 | 51.46659 | -0.46914 | 96 ft | 20 kts | 270° |
| 2026-05-07 18:28 | 51.46658 | -0.47163 | 93 ft | 25 kts | 269° |
| 2026-05-07 18:28 | 51.46656 | -0.47458 | 90 ft | 28 kts | 269° |
| 2026-05-07 18:29 | 51.46655 | -0.47752 | 92 ft | 18 kts | 270° |
| 2026-05-07 18:29 | 51.46655 | -0.47968 | 93 ft | 20 kts | 268° |
| 2026-05-07 18:29 | 51.46654 | -0.48071 | 91 ft | 0 kts | 270° |
| 2026-05-07 18:30 | 51.46654 | -0.48081 | 91 ft | 2 kts | 269° |
| 2026-05-07 18:30 | 51.46654 | -0.48145 | 92 ft | 10 kts | 269° |
| 2026-05-07 18:30 | 51.46654 | -0.48296 | 93 ft | 17 kts | 269° |
| 2026-05-07 18:30 | 51.46652 | -0.48464 | 93 ft | 17 kts | 268° |
| 2026-05-07 18:31 | 51.46652 | -0.48658 | 92 ft | 14 kts | 271° |
| 2026-05-07 18:31 | 51.46627 | -0.48743 | 95 ft | 6 kts | 206° |
| 2026-05-07 18:31 | 51.46567 | -0.48780 | 92 ft | 13 kts | 192° |
| 2026-05-07 18:31 | 51.46488 | -0.48729 | 96 ft | 13 kts | 121° |
| 2026-05-07 18:32 | 51.46476 | -0.48565 | 95 ft | 16 kts | 90° |
| 2026-05-07 18:32 | 51.46479 | -0.48134 | 91 ft | 75 kts | 90° |
| 2026-05-07 18:32 | 51.46483 | -0.46914 | 96 ft | 143 kts | 90° |
| 2026-05-07 18:32 | 51.46496 | -0.45129 | 551 ft | 165 kts | 91° |
| 2026-05-07 18:33 | 51.46598 | -0.43225 | 1324 ft | 180 kts | 79° |
| 2026-05-07 18:33 | 51.47107 | -0.41296 | 2118 ft | 193 kts | 57° |
| 2026-05-07 18:33 | 51.48048 | -0.39667 | 2866 ft | 204 kts | 41° |
| 2026-05-07 18:33 | 51.49082 | -0.38021 | 3501 ft | 215 kts | 49° |
| 2026-05-07 18:34 | 51.50075 | -0.36106 | 3989 ft | 234 kts | 51° |
| 2026-05-07 18:34 | 51.51146 | -0.33957 | 4479 ft | 255 kts | 53° |
| 2026-05-07 18:34 | 51.51989 | -0.31409 | 5324 ft | 262 kts | 69° |
| 2026-05-07 18:34 | 51.52604 | -0.28622 | 6288 ft | 266 kts | 71° |
| 2026-05-07 18:35 | 51.53201 | -0.25783 | 7222 ft | 272 kts | 71° |
| 2026-05-07 18:35 | 51.53929 | -0.22921 | 8101 ft | 281 kts | 61° |
| 2026-05-07 18:35 | 51.55303 | -0.20616 | 9045 ft | 287 kts | 31° |
| 2026-05-07 18:35 | 51.57090 | -0.19213 | 10059 ft | 292 kts | 22° |
| 2026-05-07 18:36 | 51.59032 | -0.17972 | 10695 ft | 311 kts | 18° |
| 2026-05-07 18:36 | 51.61186 | -0.16931 | 11131 ft | 334 kts | 15° |
| 2026-05-07 18:36 | 51.63500 | -0.15907 | 11628 ft | 354 kts | 15° |
| 2026-05-07 18:36 | 51.65907 | -0.14829 | 12382 ft | 363 kts | 15° |
| 2026-05-07 18:37 | 51.68364 | -0.13714 | 13241 ft | 370 kts | 15° |
| 2026-05-07 18:37 | 51.70839 | -0.12444 | 14055 ft | 377 kts | 22° |
| 2026-05-07 18:37 | 51.73112 | -0.10248 | 14682 ft | 381 kts | 41° |
| 2026-05-07 18:37 | 51.74766 | -0.06955 | 15246 ft | 384 kts | 62° |
| 2026-05-07 18:38 | 51.75705 | -0.02832 | 16075 ft | 386 kts | 77° |
| 2026-05-07 18:38 | 51.76226 | 0.01369 | 16814 ft | 391 kts | 82° |
| 2026-05-07 18:38 | 51.76592 | 0.05737 | 17614 ft | 396 kts | 84° |
| 2026-05-07 18:38 | 51.76893 | 0.10191 | 18408 ft | 402 kts | 85° |
| 2026-05-07 18:39 | 51.77191 | 0.14736 | 19143 ft | 406 kts | 84° |
| 2026-05-07 18:39 | 51.77505 | 0.19286 | 19891 ft | 411 kts | 84° |
| 2026-05-07 18:39 | 51.77892 | 0.23881 | 20625 ft | 416 kts | 80° |
| 2026-05-07 18:39 | 51.78495 | 0.28464 | 21342 ft | 421 kts | 77° |
| 2026-05-07 18:40 | 51.79182 | 0.33098 | 22059 ft | 426 kts | 76° |
| 2026-05-07 18:40 | 51.79909 | 0.37713 | 22760 ft | 431 kts | 76° |
| 2026-05-07 18:40 | 51.80681 | 0.42494 | 23480 ft | 436 kts | 75° |
| 2026-05-07 18:40 | 51.81452 | 0.47257 | 24083 ft | 441 kts | 75° |
| 2026-05-07 18:41 | 51.82231 | 0.52088 | 24681 ft | 445 kts | 76° |
| 2026-05-07 18:41 | 51.82999 | 0.56901 | 25265 ft | 450 kts | 76° |
| 2026-05-07 18:41 | 51.83779 | 0.61825 | 25860 ft | 454 kts | 76° |
| 2026-05-07 18:41 | 51.84560 | 0.66796 | 26467 ft | 458 kts | 76° |
| 2026-05-07 18:42 | 51.85342 | 0.71800 | 27050 ft | 462 kts | 76° |
| 2026-05-07 18:42 | 51.86130 | 0.76862 | 27641 ft | 466 kts | 76° |
| 2026-05-07 18:42 | 51.86923 | 0.81969 | 28220 ft | 470 kts | 76° |
| 2026-05-07 18:42 | 51.87718 | 0.87111 | 28805 ft | 473 kts | 76° |
| 2026-05-07 18:43 | 51.88520 | 0.92303 | 29339 ft | 477 kts | 76° |
| 2026-05-07 18:43 | 51.89325 | 0.97539 | 29903 ft | 481 kts | 76° |
| 2026-05-07 18:43 | 51.90133 | 1.02805 | 30378 ft | 485 kts | 76° |
| 2026-05-07 18:43 | 51.90946 | 1.08127 | 30811 ft | 488 kts | 76° |
| 2026-05-07 18:44 | 51.91487 | 1.11672 | 31094 ft | 490 kts | 76° |
| 2026-05-07 18:44 | 51.92308 | 1.17078 | 31530 ft | 493 kts | 76° |
| 2026-05-07 18:44 | 51.93397 | 1.24266 | 32075 ft | 497 kts | 76° |
| 2026-05-07 18:44 | 51.93946 | 1.27903 | 32331 ft | 499 kts | 76° |
| 2026-05-07 18:45 | 51.94774 | 1.33409 | 32715 ft | 502 kts | 77° |
| 2026-05-07 18:45 | 51.95603 | 1.38941 | 33085 ft | 505 kts | 77° |
| 2026-05-07 18:45 | 51.96426 | 1.44445 | 33466 ft | 506 kts | 77° |
| 2026-05-07 18:45 | 51.97246 | 1.49951 | 33986 ft | 505 kts | 77° |
| 2026-05-07 18:46 | 51.98067 | 1.55488 | 34433 ft | 504 kts | 77° |
| 2026-05-07 18:46 | 51.98885 | 1.61015 | 34838 ft | 504 kts | 77° |
| 2026-05-07 18:46 | 51.99699 | 1.66543 | 35225 ft | 503 kts | 77° |
| 2026-05-07 18:46 | 52.00510 | 1.72071 | 35608 ft | 503 kts | 77° |
| 2026-05-07 18:47 | 52.01318 | 1.77593 | 35975 ft | 503 kts | 77° |
| 2026-05-07 18:47 | 52.02123 | 1.83117 | 36334 ft | 503 kts | 77° |
| 2026-05-07 18:47 | 52.02928 | 1.88659 | 36679 ft | 503 kts | 77° |
| 2026-05-07 18:47 | 52.03729 | 1.94195 | 36996 ft | 504 kts | 77° |
| 2026-05-07 18:48 | 52.04529 | 1.99748 | 37086 ft | 506 kts | 77° |
| 2026-05-07 18:48 | 52.06125 | 2.10878 | 37088 ft | 505 kts | 77° |
| 2026-05-07 18:49 | 52.07718 | 2.22062 | 37084 ft | 505 kts | 78° |
| 2026-05-07 18:49 | 52.09280 | 2.33117 | 37085 ft | 505 kts | 78° |
| 2026-05-07 18:50 | 52.10767 | 2.44279 | 37085 ft | 504 kts | 82° |
| 2026-05-07 18:50 | 52.10800 | 2.55617 | 37092 ft | 501 kts | 101° |
| 2026-05-07 18:51 | 52.09184 | 2.66609 | 37083 ft | 500 kts | 106° |
| 2026-05-07 18:51 | 52.07404 | 2.77525 | 37090 ft | 500 kts | 106° |
| 2026-05-07 18:52 | 52.05618 | 2.88445 | 37088 ft | 500 kts | 106° |
| 2026-05-07 18:52 | 52.03823 | 2.99369 | 37086 ft | 500 kts | 106° |
| 2026-05-07 18:53 | 52.02018 | 3.10284 | 37093 ft | 500 kts | 107° |
| 2026-05-07 18:53 | 52.00204 | 3.21191 | 37101 ft | 500 kts | 107° |
| 2026-05-07 18:54 | 51.98381 | 3.32081 | 37100 ft | 500 kts | 107° |
| 2026-05-07 18:54 | 51.96546 | 3.42971 | 37103 ft | 500 kts | 107° |
| 2026-05-07 18:55 | 51.94701 | 3.53853 | 37101 ft | 500 kts | 107° |
| 2026-05-07 18:55 | 51.92847 | 3.64722 | 37100 ft | 500 kts | 107° |
| 2026-05-07 18:56 | 51.90970 | 3.75653 | 37100 ft | 500 kts | 107° |
| 2026-05-07 18:56 | 51.89087 | 3.86555 | 37093 ft | 500 kts | 107° |
| 2026-05-07 18:57 | 51.87211 | 3.97347 | 37086 ft | 500 kts | 107° |
| 2026-05-07 18:57 | 51.85318 | 4.08175 | 37078 ft | 500 kts | 107° |
| 2026-05-07 18:58 | 51.83412 | 4.19007 | 37078 ft | 500 kts | 107° |
| 2026-05-07 18:58 | 51.81499 | 4.29815 | 37076 ft | 500 kts | 107° |
| 2026-05-07 18:59 | 51.79575 | 4.40624 | 37075 ft | 500 kts | 107° |
| 2026-05-07 18:59 | 51.77628 | 4.51489 | 37076 ft | 500 kts | 108° |
| 2026-05-07 19:00 | 51.75673 | 4.62340 | 37080 ft | 500 kts | 108° |
| 2026-05-07 19:00 | 51.73731 | 4.73049 | 37078 ft | 500 kts | 108° |
| 2026-05-07 19:01 | 51.71743 | 4.83952 | 37074 ft | 500 kts | 108° |
| 2026-05-07 19:01 | 51.69774 | 4.94689 | 37077 ft | 500 kts | 108° |
| 2026-05-07 19:02 | 51.67777 | 5.05508 | 37076 ft | 500 kts | 108° |
| 2026-05-07 19:02 | 51.65787 | 5.16235 | 37077 ft | 500 kts | 108° |
| 2026-05-07 19:03 | 51.63787 | 5.26946 | 37077 ft | 500 kts | 108° |
| 2026-05-07 19:03 | 51.61771 | 5.37683 | 37070 ft | 500 kts | 108° |
| 2026-05-07 19:04 | 51.59728 | 5.48502 | 37081 ft | 500 kts | 108° |
| 2026-05-07 19:04 | 51.57685 | 5.59262 | 37076 ft | 500 kts | 108° |
| 2026-05-07 19:05 | 51.55630 | 5.70021 | 37082 ft | 500 kts | 108° |
| 2026-05-07 19:05 | 51.53565 | 5.80769 | 37075 ft | 500 kts | 109° |
| 2026-05-07 19:06 | 51.51839 | 5.89710 | 37078 ft | 500 kts | 109° |
| 2026-05-07 19:06 | 51.48703 | 6.05843 | 37075 ft | 500 kts | 109° |
| 2026-05-07 19:07 | 51.46620 | 6.16489 | 37075 ft | 500 kts | 109° |
| 2026-05-07 19:07 | 51.44511 | 6.27206 | 37071 ft | 500 kts | 109° |
| 2026-05-07 19:08 | 51.42410 | 6.37820 | 37076 ft | 500 kts | 109° |
| 2026-05-07 19:08 | 51.40281 | 6.48519 | 37076 ft | 500 kts | 109° |
| 2026-05-07 19:09 | 51.38154 | 6.59149 | 37076 ft | 500 kts | 109° |
| 2026-05-07 19:09 | 51.36021 | 6.69753 | 36903 ft | 499 kts | 109° |
| 2026-05-07 19:10 | 51.34952 | 6.75046 | 36652 ft | 499 kts | 109° |
| 2026-05-07 19:10 | 51.33882 | 6.80331 | 36388 ft | 500 kts | 109° |
| 2026-05-07 19:10 | 51.32811 | 6.85604 | 36060 ft | 499 kts | 109° |
| 2026-05-07 19:10 | 51.31741 | 6.90859 | 35452 ft | 496 kts | 109° |
| 2026-05-07 19:11 | 51.30625 | 6.96327 | 34663 ft | 496 kts | 109° |
| 2026-05-07 19:11 | 51.29561 | 7.01504 | 33798 ft | 498 kts | 109° |
| 2026-05-07 19:11 | 51.28258 | 7.06660 | 33010 ft | 494 kts | 117° |
| 2026-05-07 19:11 | 51.26472 | 7.11422 | 32165 ft | 492 kts | 127° |
| 2026-05-07 19:12 | 51.24235 | 7.15552 | 31287 ft | 490 kts | 137° |
| 2026-05-07 19:12 | 51.21558 | 7.19049 | 30357 ft | 490 kts | 147° |
| 2026-05-07 19:12 | 51.18614 | 7.21755 | 29465 ft | 488 kts | 154° |
| 2026-05-07 19:12 | 51.15608 | 7.24266 | 29133 ft | 490 kts | 153° |
| 2026-05-07 19:13 | 51.12594 | 7.26807 | 28834 ft | 491 kts | 154° |
| 2026-05-07 19:13 | 51.09531 | 7.29361 | 28576 ft | 489 kts | 154° |
| 2026-05-07 19:13 | 51.06520 | 7.31847 | 28120 ft | 485 kts | 154° |
| 2026-05-07 19:13 | 51.03497 | 7.34328 | 27443 ft | 479 kts | 154° |
| 2026-05-07 19:14 | 51.00539 | 7.36744 | 26631 ft | 477 kts | 154° |
| 2026-05-07 19:14 | 50.97558 | 7.39171 | 26189 ft | 473 kts | 154° |
| 2026-05-07 19:14 | 50.94636 | 7.41545 | 26083 ft | 473 kts | 154° |
| 2026-05-07 19:14 | 50.91706 | 7.43921 | 26075 ft | 472 kts | 154° |
| 2026-05-07 19:15 | 50.88788 | 7.46283 | 26072 ft | 471 kts | 154° |
| 2026-05-07 19:15 | 50.85835 | 7.48671 | 26072 ft | 471 kts | 154° |
| 2026-05-07 19:15 | 50.82913 | 7.51029 | 26071 ft | 471 kts | 154° |
| 2026-05-07 19:15 | 50.79956 | 7.53413 | 26072 ft | 471 kts | 154° |
| 2026-05-07 19:16 | 50.76995 | 7.55795 | 26071 ft | 471 kts | 154° |
| 2026-05-07 19:16 | 50.74035 | 7.58174 | 26069 ft | 471 kts | 154° |
| 2026-05-07 19:16 | 50.71110 | 7.60520 | 26075 ft | 471 kts | 154° |
| 2026-05-07 19:16 | 50.68195 | 7.62857 | 25874 ft | 464 kts | 154° |
| 2026-05-07 19:17 | 50.66263 | 7.64405 | 25391 ft | 462 kts | 154° |
| 2026-05-07 19:17 | 50.63396 | 7.66698 | 24629 ft | 461 kts | 155° |
| 2026-05-07 19:17 | 50.60510 | 7.69003 | 23964 ft | 457 kts | 155° |
| 2026-05-07 19:17 | 50.57691 | 7.71251 | 23258 ft | 452 kts | 155° |
| 2026-05-07 19:18 | 50.54891 | 7.73480 | 22492 ft | 448 kts | 155° |
| 2026-05-07 19:18 | 50.52081 | 7.75713 | 21732 ft | 444 kts | 155° |
| 2026-05-07 19:18 | 50.49292 | 7.77926 | 21001 ft | 440 kts | 154° |
| 2026-05-07 19:18 | 50.46579 | 7.80077 | 20296 ft | 435 kts | 154° |
| 2026-05-07 19:19 | 50.43875 | 7.82326 | 19575 ft | 432 kts | 150° |
| 2026-05-07 19:19 | 50.41415 | 7.85075 | 19138 ft | 423 kts | 143° |
| 2026-05-07 19:19 | 50.39113 | 7.87936 | 18831 ft | 410 kts | 142° |
| 2026-05-07 19:19 | 50.36923 | 7.90668 | 18492 ft | 390 kts | 142° |
| 2026-05-07 19:20 | 50.34837 | 7.93265 | 18009 ft | 367 kts | 142° |
| 2026-05-07 19:20 | 50.32860 | 7.95719 | 17558 ft | 347 kts | 143° |
| 2026-05-07 19:20 | 50.31011 | 7.98024 | 17018 ft | 333 kts | 142° |
| 2026-05-07 19:20 | 50.29311 | 8.00429 | 16308 ft | 327 kts | 135° |
| 2026-05-07 19:21 | 50.27818 | 8.03140 | 15568 ft | 323 kts | 128° |
| 2026-05-07 19:21 | 50.26596 | 8.06054 | 14780 ft | 320 kts | 120° |
| 2026-05-07 19:21 | 50.25596 | 8.09300 | 13872 ft | 334 kts | 112° |
| 2026-05-07 19:21 | 50.24870 | 8.12757 | 13021 ft | 343 kts | 105° |
| 2026-05-07 19:22 | 50.24278 | 8.16418 | 12160 ft | 351 kts | 104° |
| 2026-05-07 19:22 | 50.23685 | 8.20209 | 11243 ft | 359 kts | 104° |
| 2026-05-07 19:22 | 50.23073 | 8.24069 | 10510 ft | 374 kts | 104° |
| 2026-05-07 19:22 | 50.22430 | 8.28069 | 10106 ft | 381 kts | 104° |
| 2026-05-07 19:23 | 50.21776 | 8.32115 | 9988 ft | 381 kts | 104° |
| 2026-05-07 19:23 | 50.21351 | 8.36207 | 9976 ft | 373 kts | 89° |
| 2026-05-07 19:23 | 50.21844 | 8.39951 | 9982 ft | 348 kts | 66° |
| 2026-05-07 19:23 | 50.23213 | 8.42936 | 9978 ft | 324 kts | 40° |
| 2026-05-07 19:24 | 50.25077 | 8.44755 | 9978 ft | 303 kts | 23° |
| 2026-05-07 19:24 | 50.27034 | 8.45835 | 9982 ft | 289 kts | 12° |
| 2026-05-07 19:24 | 50.29009 | 8.46276 | 9991 ft | 286 kts | 1° |
| 2026-05-07 19:24 | 50.30990 | 8.46041 | 9991 ft | 286 kts | 348° |
| 2026-05-07 19:25 | 50.32904 | 8.44997 | 10008 ft | 305 kts | 329° |
| 2026-05-07 19:25 | 50.34586 | 8.42681 | 10010 ft | 343 kts | 307° |
| 2026-05-07 19:25 | 50.35717 | 8.39278 | 9997 ft | 363 kts | 287° |
| 2026-05-07 19:25 | 50.36044 | 8.35354 | 9990 ft | 362 kts | 268° |
| 2026-05-07 19:26 | 50.35510 | 8.31649 | 9991 ft | 340 kts | 247° |
| 2026-05-07 19:26 | 50.34244 | 8.28668 | 9993 ft | 319 kts | 227° |
| 2026-05-07 19:26 | 50.32707 | 8.26302 | 9982 ft | 300 kts | 224° |
| 2026-05-07 19:26 | 50.31209 | 8.24136 | 9986 ft | 288 kts | 223° |
| 2026-05-07 19:27 | 50.29737 | 8.22027 | 9996 ft | 287 kts | 223° |
| 2026-05-07 19:27 | 50.28245 | 8.19895 | 9995 ft | 296 kts | 223° |
| 2026-05-07 19:27 | 50.26652 | 8.17619 | 9998 ft | 327 kts | 223° |
| 2026-05-07 19:27 | 50.24883 | 8.15078 | 9992 ft | 360 kts | 223° |
| 2026-05-07 19:28 | 50.23011 | 8.12384 | 9986 ft | 370 kts | 223° |
| 2026-05-07 19:28 | 50.21094 | 8.09706 | 9948 ft | 364 kts | 219° |
| 2026-05-07 19:28 | 50.19016 | 8.07620 | 9678 ft | 348 kts | 206° |
| 2026-05-07 19:28 | 50.16758 | 8.06478 | 9377 ft | 336 kts | 190° |
| 2026-05-07 19:29 | 50.14467 | 8.06418 | 9093 ft | 325 kts | 173° |
| 2026-05-07 19:29 | 50.12345 | 8.07404 | 8832 ft | 314 kts | 155° |
| 2026-05-07 19:29 | 50.10565 | 8.09257 | 8584 ft | 303 kts | 138° |
| 2026-05-07 19:29 | 50.09240 | 8.11678 | 7971 ft | 292 kts | 122° |
| 2026-05-07 19:30 | 50.08417 | 8.14541 | 7194 ft | 289 kts | 106° |
| 2026-05-07 19:30 | 50.08031 | 8.17584 | 6455 ft | 284 kts | 98° |
| 2026-05-07 19:30 | 50.07610 | 8.20597 | 5570 ft | 280 kts | 108° |
| 2026-05-07 19:30 | 50.07134 | 8.22454 | 5058 ft | 277 kts | 114° |
| 2026-05-07 19:31 | 50.06210 | 8.25011 | 4604 ft | 258 kts | 118° |
| 2026-05-07 19:31 | 50.05310 | 8.27338 | 4160 ft | 245 kts | 121° |
| 2026-05-07 19:31 | 50.04436 | 8.29541 | 3758 ft | 233 kts | 120° |
| 2026-05-07 19:31 | 50.04284 | 8.29940 | 3686 ft | 231 kts | 120° |
| 2026-05-07 19:32 | 50.03747 | 8.31533 | 3451 ft | 227 kts | 114° |
| 2026-05-07 19:32 | 50.03070 | 8.33773 | 3121 ft | 220 kts | 113° |